sensor_id;sensor_type;location;lat;lon;timestamp;temperature;humidity
13796;SHT30;40911;51.552;9.874;2023-02-01T00:00:04;5.03;87.60
13796;SHT30;40911;51.552;9.874;2023-02-01T00:02:26;5.01;87.51
13796;SHT30;40911;51.552;9.874;2023-02-01T00:04:48;5.00;87.47
13796;SHT30;40911;51.552;9.874;2023-02-01T00:07:09;4.99;87.62
13796;SHT30;40911;51.552;9.874;2023-02-01T00:09:31;5.03;87.46
13796;SHT30;40911;51.552;9.874;2023-02-01T00:11:52;4.96;87.66
13796;SHT30;40911;51.552;9.874;2023-02-01T00:14:15;4.99;87.52
13796;SHT30;40911;51.552;9.874;2023-02-01T00:16:37;4.96;87.84
13796;SHT30;40911;51.552;9.874;2023-02-01T00:19:01;4.95;87.55
13796;SHT30;40911;51.552;9.874;2023-02-01T00:21:23;4.92;87.80
13796;SHT30;40911;51.552;9.874;2023-02-01T00:23:45;4.96;87.41
13796;SHT30;40911;51.552;9.874;2023-02-01T00:26:10;4.97;87.02
13796;SHT30;40911;51.552;9.874;2023-02-01T00:28:34;4.90;87.30
13796;SHT30;40911;51.552;9.874;2023-02-01T00:30:58;4.92;87.35
13796;SHT30;40911;51.552;9.874;2023-02-01T00:33:20;4.89;87.32
13796;SHT30;40911;51.552;9.874;2023-02-01T00:35:41;4.83;87.36
13796;SHT30;40911;51.552;9.874;2023-02-01T00:38:03;4.82;87.22
13796;SHT30;40911;51.552;9.874;2023-02-01T00:40:24;4.79;87.50
13796;SHT30;40911;51.552;9.874;2023-02-01T00:42:46;4.87;87.15
13796;SHT30;40911;51.552;9.874;2023-02-01T00:45:08;4.82;87.07
13796;SHT30;40911;51.552;9.874;2023-02-01T00:47:32;4.76;87.62
13796;SHT30;40911;51.552;9.874;2023-02-01T00:49:53;4.73;87.58
13796;SHT30;40911;51.552;9.874;2023-02-01T00:52:15;4.82;86.75
13796;SHT30;40911;51.552;9.874;2023-02-01T00:54:36;4.78;87.24
13796;SHT30;40911;51.552;9.874;2023-02-01T00:56:58;4.83;86.98
13796;SHT30;40911;51.552;9.874;2023-02-01T00:59:19;4.76;87.15
13796;SHT30;40911;51.552;9.874;2023-02-01T01:01:41;4.69;87.27
13796;SHT30;40911;51.552;9.874;2023-02-01T01:04:04;4.66;87.49
13796;SHT30;40911;51.552;9.874;2023-02-01T01:06:27;4.78;86.71
13796;SHT30;40911;51.552;9.874;2023-02-01T01:08:51;4.78;86.76
13796;SHT30;40911;51.552;9.874;2023-02-01T01:11:15;4.72;86.94
13796;SHT30;40911;51.552;9.874;2023-02-01T01:13:37;4.66;87.19
13796;SHT30;40911;51.552;9.874;2023-02-01T01:16:00;4.83;86.16
13796;SHT30;40911;51.552;9.874;2023-02-01T01:18:23;4.68;87.04
13796;SHT30;40911;51.552;9.874;2023-02-01T01:20:47;4.78;86.49
13796;SHT30;40911;51.552;9.874;2023-02-01T01:23:09;4.68;86.94
13796;SHT30;40911;51.552;9.874;2023-02-01T01:25:31;4.71;86.85
13796;SHT30;40911;51.552;9.874;2023-02-01T01:27:53;4.73;86.69
13796;SHT30;40911;51.552;9.874;2023-02-01T01:30:15;4.69;86.79
13796;SHT30;40911;51.552;9.874;2023-02-01T01:32:37;4.71;86.81
13796;SHT30;40911;51.552;9.874;2023-02-01T01:34:58;4.68;86.68
13796;SHT30;40911;51.552;9.874;2023-02-01T01:37:21;4.69;86.65
13796;SHT30;40911;51.552;9.874;2023-02-01T01:39:43;4.65;86.72
13796;SHT30;40911;51.552;9.874;2023-02-01T01:42:04;4.65;86.55
13796;SHT30;40911;51.552;9.874;2023-02-01T01:47:34;4.59;86.47
13796;SHT30;40911;51.552;9.874;2023-02-01T01:49:57;4.51;86.84
13796;SHT30;40911;51.552;9.874;2023-02-01T01:52:18;4.61;85.97
13796;SHT30;40911;51.552;9.874;2023-02-01T01:54:43;4.51;86.60
13796;SHT30;40911;51.552;9.874;2023-02-01T01:57:09;4.59;86.02
13796;SHT30;40911;51.552;9.874;2023-02-01T01:59:35;4.61;85.80
13796;SHT30;40911;51.552;9.874;2023-02-01T02:01:58;4.61;85.86
13796;SHT30;40911;51.552;9.874;2023-02-01T02:04:20;4.52;86.21
13796;SHT30;40911;51.552;9.874;2023-02-01T02:06:42;4.51;86.25
13796;SHT30;40911;51.552;9.874;2023-02-01T02:09:05;4.64;85.60
13796;SHT30;40911;51.552;9.874;2023-02-01T02:11:28;4.51;86.11
13796;SHT30;40911;51.552;9.874;2023-02-01T02:13:52;4.54;85.83
13796;SHT30;40911;51.552;9.874;2023-02-01T02:16:23;4.61;85.39
13796;SHT30;40911;51.552;9.874;2023-02-01T02:18:53;4.52;85.89
13796;SHT30;40911;51.552;9.874;2023-02-01T02:21:23;4.54;85.86
13796;SHT30;40911;51.552;9.874;2023-02-01T02:24:24;4.61;85.72
13796;SHT30;40911;51.552;9.874;2023-02-01T02:27:02;4.61;85.63
13796;SHT30;40911;51.552;9.874;2023-02-01T02:33:14;4.68;85.45
13796;SHT30;40911;51.552;9.874;2023-02-01T02:35:42;4.73;85.10
13796;SHT30;40911;51.552;9.874;2023-02-01T02:38:13;4.65;85.69
13796;SHT30;40911;51.552;9.874;2023-02-01T02:40:42;4.69;85.59
13796;SHT30;40911;51.552;9.874;2023-02-01T02:43:09;4.73;85.33
13796;SHT30;40911;51.552;9.874;2023-02-01T02:45:51;4.64;85.73
13796;SHT30;40911;51.552;9.874;2023-02-01T02:48:37;4.62;86.17
13796;SHT30;40911;51.552;9.874;2023-02-01T02:51:04;4.59;86.59
13796;SHT30;40911;51.552;9.874;2023-02-01T02:53:48;4.75;86.01
13796;SHT30;40911;51.552;9.874;2023-02-01T02:56:30;4.78;86.15
13796;SHT30;40911;51.552;9.874;2023-02-01T02:59:12;4.68;86.59
13796;SHT30;40911;51.552;9.874;2023-02-01T03:01:54;4.73;86.25
13796;SHT30;40911;51.552;9.874;2023-02-01T03:04:34;4.76;86.17
13796;SHT30;40911;51.552;9.874;2023-02-01T03:06:56;4.72;86.36
13796;SHT30;40911;51.552;9.874;2023-02-01T03:09:22;4.66;86.50
13796;SHT30;40911;51.552;9.874;2023-02-01T03:11:47;4.71;86.44
13796;SHT30;40911;51.552;9.874;2023-02-01T03:14:28;4.68;86.84
13796;SHT30;40911;51.552;9.874;2023-02-01T03:16:54;4.72;86.72
13796;SHT30;40911;51.552;9.874;2023-02-01T03:19:21;4.72;86.60
13796;SHT30;40911;51.552;9.874;2023-02-01T03:21:48;4.71;86.89
13796;SHT30;40911;51.552;9.874;2023-02-01T03:24:12;4.69;87.12
13796;SHT30;40911;51.552;9.874;2023-02-01T03:26:39;4.73;86.89
13796;SHT30;40911;51.552;9.874;2023-02-01T03:29:07;4.76;86.73
13796;SHT30;40911;51.552;9.874;2023-02-01T03:31:29;4.80;86.59
13796;SHT30;40911;51.552;9.874;2023-02-01T03:33:52;4.85;86.53
13796;SHT30;40911;51.552;9.874;2023-02-01T03:36:18;4.83;86.58
13796;SHT30;40911;51.552;9.874;2023-02-01T03:38:50;4.96;85.97
13796;SHT30;40911;51.552;9.874;2023-02-01T03:41:17;4.92;85.97
13796;SHT30;40911;51.552;9.874;2023-02-01T03:43:48;4.93;85.98
13796;SHT30;40911;51.552;9.874;2023-02-01T03:46:18;4.90;86.17
13796;SHT30;40911;51.552;9.874;2023-02-01T03:48:41;4.83;86.30
13796;SHT30;40911;51.552;9.874;2023-02-01T03:51:04;4.96;85.88
13796;SHT30;40911;51.552;9.874;2023-02-01T03:53:28;4.96;85.46
13796;SHT30;40911;51.552;9.874;2023-02-01T03:55:52;4.93;85.45
13796;SHT30;40911;51.552;9.874;2023-02-01T03:58:16;4.96;85.26
13796;SHT30;40911;51.552;9.874;2023-02-01T04:00:40;5.00;84.78
13796;SHT30;40911;51.552;9.874;2023-02-01T04:03:03;4.93;84.90
13796;SHT30;40911;51.552;9.874;2023-02-01T04:05:25;5.07;84.24
13796;SHT30;40911;51.552;9.874;2023-02-01T04:07:46;5.11;83.87
13796;SHT30;40911;51.552;9.874;2023-02-01T04:10:10;5.03;84.54
13796;SHT30;40911;51.552;9.874;2023-02-01T04:12:33;5.03;84.48
13796;SHT30;40911;51.552;9.874;2023-02-01T04:14:54;5.16;83.90
13796;SHT30;40911;51.552;9.874;2023-02-01T04:17:16;5.00;84.63
13796;SHT30;40911;51.552;9.874;2023-02-01T04:19:38;5.04;84.51
13796;SHT30;40911;51.552;9.874;2023-02-01T04:22:00;5.06;84.59
13796;SHT30;40911;51.552;9.874;2023-02-01T04:24:21;5.10;84.38
13796;SHT30;40911;51.552;9.874;2023-02-01T04:26:43;5.04;84.63
13796;SHT30;40911;51.552;9.874;2023-02-01T04:29:08;5.07;84.49
13796;SHT30;40911;51.552;9.874;2023-02-01T04:31:30;5.00;84.96
13796;SHT30;40911;51.552;9.874;2023-02-01T04:33:52;5.07;84.50
13796;SHT30;40911;51.552;9.874;2023-02-01T04:36:14;5.03;85.09
13796;SHT30;40911;51.552;9.874;2023-02-01T04:38:35;5.06;84.63
13796;SHT30;40911;51.552;9.874;2023-02-01T04:40:57;5.08;84.42
13796;SHT30;40911;51.552;9.874;2023-02-01T04:43:18;5.01;84.89
13796;SHT30;40911;51.552;9.874;2023-02-01T04:45:41;4.97;85.25
13796;SHT30;40911;51.552;9.874;2023-02-01T04:48:07;4.96;85.28
13796;SHT30;40911;51.552;9.874;2023-02-01T04:50:29;4.97;85.41
13796;SHT30;40911;51.552;9.874;2023-02-01T04:52:50;4.97;85.13
13796;SHT30;40911;51.552;9.874;2023-02-01T04:55:12;4.93;85.59
13796;SHT30;40911;51.552;9.874;2023-02-01T04:57:34;4.99;85.35
13796;SHT30;40911;51.552;9.874;2023-02-01T04:59:56;4.99;85.44
13796;SHT30;40911;51.552;9.874;2023-02-01T05:02:19;5.06;84.98
13796;SHT30;40911;51.552;9.874;2023-02-01T05:04:40;4.99;85.46
13796;SHT30;40911;51.552;9.874;2023-02-01T05:07:02;4.95;85.89
13796;SHT30;40911;51.552;9.874;2023-02-01T05:09:23;5.01;85.54
13796;SHT30;40911;51.552;9.874;2023-02-01T05:11:45;5.01;85.49
13796;SHT30;40911;51.552;9.874;2023-02-01T05:14:24;5.03;85.17
13796;SHT30;40911;51.552;9.874;2023-02-01T05:16:45;5.06;85.27
13796;SHT30;40911;51.552;9.874;2023-02-01T05:19:08;5.08;85.26
13796;SHT30;40911;51.552;9.874;2023-02-01T05:21:30;5.06;85.44
13796;SHT30;40911;51.552;9.874;2023-02-01T05:23:51;5.07;85.33
13796;SHT30;40911;51.552;9.874;2023-02-01T05:26:33;5.03;85.72
13796;SHT30;40911;51.552;9.874;2023-02-01T05:28:55;5.01;85.87
13796;SHT30;40911;51.552;9.874;2023-02-01T05:31:17;5.06;85.55
13796;SHT30;40911;51.552;9.874;2023-02-01T05:33:39;4.95;86.27
13796;SHT30;40911;51.552;9.874;2023-02-01T05:36:02;5.01;85.96
13796;SHT30;40911;51.552;9.874;2023-02-01T05:38:24;5.00;86.64
13796;SHT30;40911;51.552;9.874;2023-02-01T05:40:46;4.99;86.41
13796;SHT30;40911;51.552;9.874;2023-02-01T05:43:09;5.00;86.70
13796;SHT30;40911;51.552;9.874;2023-02-01T05:45:31;4.95;87.34
13796;SHT30;40911;51.552;9.874;2023-02-01T05:47:52;4.90;87.84
13796;SHT30;40911;51.552;9.874;2023-02-01T05:50:14;4.97;87.13
13796;SHT30;40911;51.552;9.874;2023-02-01T05:52:38;4.83;88.32
13796;SHT30;40911;51.552;9.874;2023-02-01T05:54:59;4.82;88.52
13796;SHT30;40911;51.552;9.874;2023-02-01T05:57:21;4.76;89.15
13796;SHT30;40911;51.552;9.874;2023-02-01T05:59:42;4.72;89.54
13796;SHT30;40911;51.552;9.874;2023-02-01T06:02:05;4.71;89.71
13796;SHT30;40911;51.552;9.874;2023-02-01T06:04:27;4.62;90.26
13796;SHT30;40911;51.552;9.874;2023-02-01T06:06:48;4.65;89.83
13796;SHT30;40911;51.552;9.874;2023-02-01T06:09:12;4.66;89.98
13796;SHT30;40911;51.552;9.874;2023-02-01T06:11:34;4.64;89.94
13796;SHT30;40911;51.552;9.874;2023-02-01T06:13:55;4.61;90.42
13796;SHT30;40911;51.552;9.874;2023-02-01T06:16:17;4.59;90.47
13796;SHT30;40911;51.552;9.874;2023-02-01T06:18:39;4.61;90.33
13796;SHT30;40911;51.552;9.874;2023-02-01T06:21:02;4.64;89.98
13796;SHT30;40911;51.552;9.874;2023-02-01T06:23:23;4.54;90.95
13796;SHT30;40911;51.552;9.874;2023-02-01T06:25:46;4.47;91.63
13796;SHT30;40911;51.552;9.874;2023-02-01T06:28:08;4.44;91.66
13796;SHT30;40911;51.552;9.874;2023-02-01T06:30:29;4.39;91.95
13796;SHT30;40911;51.552;9.874;2023-02-01T06:32:51;4.38;92.29
13796;SHT30;40911;51.552;9.874;2023-02-01T06:35:14;4.44;91.64
13796;SHT30;40911;51.552;9.874;2023-02-01T06:37:37;4.37;92.34
13796;SHT30;40911;51.552;9.874;2023-02-01T06:39:58;4.37;92.26
13796;SHT30;40911;51.552;9.874;2023-02-01T06:42:21;4.37;92.21
13796;SHT30;40911;51.552;9.874;2023-02-01T06:44:43;4.39;92.09
13796;SHT30;40911;51.552;9.874;2023-02-01T06:47:04;4.42;92.11
13796;SHT30;40911;51.552;9.874;2023-02-01T06:49:26;4.38;92.14
13796;SHT30;40911;51.552;9.874;2023-02-01T06:51:48;4.30;92.90
13796;SHT30;40911;51.552;9.874;2023-02-01T06:54:09;4.35;92.44
13796;SHT30;40911;51.552;9.874;2023-02-01T06:56:31;4.44;91.78
13796;SHT30;40911;51.552;9.874;2023-02-01T06:58:54;4.38;92.12
13796;SHT30;40911;51.552;9.874;2023-02-01T07:01:16;4.39;92.32
13796;SHT30;40911;51.552;9.874;2023-02-01T07:03:38;4.49;91.32
13796;SHT30;40911;51.552;9.874;2023-02-01T07:06:00;4.51;91.67
13796;SHT30;40911;51.552;9.874;2023-02-01T07:08:21;4.55;91.09
13796;SHT30;40911;51.552;9.874;2023-02-01T07:10:43;4.48;91.61
13796;SHT30;40911;51.552;9.874;2023-02-01T07:13:05;4.49;91.51
13796;SHT30;40911;51.552;9.874;2023-02-01T07:15:27;4.52;91.53
13796;SHT30;40911;51.552;9.874;2023-02-01T07:17:49;4.48;91.54
13796;SHT30;40911;51.552;9.874;2023-02-01T07:20:11;4.61;90.84
13796;SHT30;40911;51.552;9.874;2023-02-01T07:22:32;4.59;91.11
13796;SHT30;40911;51.552;9.874;2023-02-01T07:24:54;4.59;90.83
13796;SHT30;40911;51.552;9.874;2023-02-01T07:27:15;4.66;90.39
13796;SHT30;40911;51.552;9.874;2023-02-01T07:29:37;4.76;89.57
13796;SHT30;40911;51.552;9.874;2023-02-01T07:32:00;4.73;90.12
13796;SHT30;40911;51.552;9.874;2023-02-01T07:34:22;4.69;90.51
13796;SHT30;40911;51.552;9.874;2023-02-01T07:36:44;4.76;90.02
13796;SHT30;40911;51.552;9.874;2023-02-01T07:39:05;4.79;89.79
13796;SHT30;40911;51.552;9.874;2023-02-01T07:41:27;4.79;89.69
13796;SHT30;40911;51.552;9.874;2023-02-01T07:43:49;4.82;89.73
13796;SHT30;40911;51.552;9.874;2023-02-01T07:46:13;4.95;88.61
13796;SHT30;40911;51.552;9.874;2023-02-01T07:48:36;5.04;88.18
13796;SHT30;40911;51.552;9.874;2023-02-01T07:50:59;4.95;88.84
13796;SHT30;40911;51.552;9.874;2023-02-01T07:53:21;5.04;88.21
13796;SHT30;40911;51.552;9.874;2023-02-01T07:55:42;5.04;87.86
13796;SHT30;40911;51.552;9.874;2023-02-01T07:58:04;5.00;88.37
13796;SHT30;40911;51.552;9.874;2023-02-01T08:00:25;5.07;88.09
13796;SHT30;40911;51.552;9.874;2023-02-01T08:03:04;5.16;87.52
13796;SHT30;40911;51.552;9.874;2023-02-01T08:05:27;5.17;87.75
13796;SHT30;40911;51.552;9.874;2023-02-01T08:07:49;5.17;87.74
13796;SHT30;40911;51.552;9.874;2023-02-01T08:10:11;5.11;88.17
13796;SHT30;40911;51.552;9.874;2023-02-01T08:12:33;5.14;88.04
13796;SHT30;40911;51.552;9.874;2023-02-01T08:14:54;5.14;87.92
13796;SHT30;40911;51.552;9.874;2023-02-01T08:17:16;5.06;88.47
13796;SHT30;40911;51.552;9.874;2023-02-01T08:19:38;5.07;88.57
13796;SHT30;40911;51.552;9.874;2023-02-01T08:22:01;5.03;88.80
13796;SHT30;40911;51.552;9.874;2023-02-01T08:24:26;5.04;88.61
13796;SHT30;40911;51.552;9.874;2023-02-01T08:26:48;5.03;88.65
13796;SHT30;40911;51.552;9.874;2023-02-01T08:29:10;5.03;89.10
13796;SHT30;40911;51.552;9.874;2023-02-01T08:31:32;4.99;89.25
13796;SHT30;40911;51.552;9.874;2023-02-01T08:33:55;4.99;89.09
13796;SHT30;40911;51.552;9.874;2023-02-01T08:36:18;5.00;88.93
13796;SHT30;40911;51.552;9.874;2023-02-01T08:38:41;5.01;88.81
13796;SHT30;40911;51.552;9.874;2023-02-01T08:41:06;5.00;88.92
13796;SHT30;40911;51.552;9.874;2023-02-01T08:43:28;5.03;89.24
13796;SHT30;40911;51.552;9.874;2023-02-01T08:45:50;5.10;88.21
13796;SHT30;40911;51.552;9.874;2023-02-01T08:48:11;5.00;89.03
13796;SHT30;40911;51.552;9.874;2023-02-01T08:50:33;4.92;89.25
13796;SHT30;40911;51.552;9.874;2023-02-01T08:52:55;4.87;89.81
13796;SHT30;40911;51.552;9.874;2023-02-01T08:55:18;4.95;89.69
13796;SHT30;40911;51.552;9.874;2023-02-01T08:57:40;4.97;89.62
13796;SHT30;40911;51.552;9.874;2023-02-01T09:00:02;5.04;89.24
13796;SHT30;40911;51.552;9.874;2023-02-01T09:02:24;5.04;89.03
13796;SHT30;40911;51.552;9.874;2023-02-01T09:04:46;4.96;89.73
13796;SHT30;40911;51.552;9.874;2023-02-01T09:07:08;4.87;89.91
13796;SHT30;40911;51.552;9.874;2023-02-01T09:09:29;4.89;90.17
13796;SHT30;40911;51.552;9.874;2023-02-01T09:11:52;5.01;89.91
13796;SHT30;40911;51.552;9.874;2023-02-01T09:14:14;5.21;88.64
13796;SHT30;40911;51.552;9.874;2023-02-01T09:16:35;5.41;88.66
13796;SHT30;40911;51.552;9.874;2023-02-01T09:18:57;5.41;88.65
13796;SHT30;40911;51.552;9.874;2023-02-01T09:21:19;5.52;88.00
13796;SHT30;40911;51.552;9.874;2023-02-01T09:23:40;5.71;87.37
13796;SHT30;40911;51.552;9.874;2023-02-01T09:26:03;5.86;86.22
13796;SHT30;40911;51.552;9.874;2023-02-01T09:28:26;5.82;86.68
13796;SHT30;40911;51.552;9.874;2023-02-01T09:30:48;5.86;86.71
13796;SHT30;40911;51.552;9.874;2023-02-01T09:33:09;5.93;86.27
13796;SHT30;40911;51.552;9.874;2023-02-01T09:35:31;6.00;86.08
13796;SHT30;40911;51.552;9.874;2023-02-01T09:37:53;6.04;86.16
13796;SHT30;40911;51.552;9.874;2023-02-01T09:40:15;6.00;85.58
13796;SHT30;40911;51.552;9.874;2023-02-01T09:42:50;5.93;85.47
13796;SHT30;40911;51.552;9.874;2023-02-01T09:45:22;5.89;85.77
13796;SHT30;40911;51.552;9.874;2023-02-01T09:47:49;5.83;84.69
13796;SHT30;40911;51.552;9.874;2023-02-01T09:50:15;5.82;85.40
13796;SHT30;40911;51.552;9.874;2023-02-01T09:52:43;5.86;85.85
13796;SHT30;40911;51.552;9.874;2023-02-01T09:55:10;5.89;85.43
13796;SHT30;40911;51.552;9.874;2023-02-01T09:57:40;5.94;84.75
13796;SHT30;40911;51.552;9.874;2023-02-01T10:00:07;5.96;84.53
13796;SHT30;40911;51.552;9.874;2023-02-01T10:02:36;5.90;85.02
13796;SHT30;40911;51.552;9.874;2023-02-01T10:05:00;5.89;84.68
13796;SHT30;40911;51.552;9.874;2023-02-01T10:07:29;5.92;85.09
13796;SHT30;40911;51.552;9.874;2023-02-01T10:09:59;5.93;84.24
13796;SHT30;40911;51.552;9.874;2023-02-01T10:12:39;6.04;84.14
13796;SHT30;40911;51.552;9.874;2023-02-01T10:15:15;6.13;83.56
13796;SHT30;40911;51.552;9.874;2023-02-01T10:17:51;6.20;83.93
13796;SHT30;40911;51.552;9.874;2023-02-01T10:20:20;6.09;83.61
13796;SHT30;40911;51.552;9.874;2023-02-01T10:22:48;6.03;82.78
13796;SHT30;40911;51.552;9.874;2023-02-01T10:25:18;6.00;83.32
13796;SHT30;40911;51.552;9.874;2023-02-01T10:27:41;5.99;82.68
13796;SHT30;40911;51.552;9.874;2023-02-01T10:30:14;5.96;83.02
13796;SHT30;40911;51.552;9.874;2023-02-01T10:32:39;5.96;82.35
13796;SHT30;40911;51.552;9.874;2023-02-01T10:35:12;5.97;81.78
13796;SHT30;40911;51.552;9.874;2023-02-01T10:37:34;6.00;81.94
13796;SHT30;40911;51.552;9.874;2023-02-01T10:39:57;6.06;81.99
13796;SHT30;40911;51.552;9.874;2023-02-01T10:42:23;6.02;81.25
13796;SHT30;40911;51.552;9.874;2023-02-01T10:44:46;5.97;81.73
13796;SHT30;40911;51.552;9.874;2023-02-01T10:47:09;5.97;81.10
13796;SHT30;40911;51.552;9.874;2023-02-01T10:49:34;6.00;80.90
13796;SHT30;40911;51.552;9.874;2023-02-01T10:52:04;6.06;80.71
13796;SHT30;40911;51.552;9.874;2023-02-01T10:54:33;6.03;80.96
13796;SHT30;40911;51.552;9.874;2023-02-01T10:56:55;6.06;80.98
13796;SHT30;40911;51.552;9.874;2023-02-01T10:59:18;6.09;81.52
13796;SHT30;40911;51.552;9.874;2023-02-01T11:01:42;6.06;80.66
13796;SHT30;40911;51.552;9.874;2023-02-01T11:04:05;6.09;81.32
13796;SHT30;40911;51.552;9.874;2023-02-01T11:06:30;6.04;80.96
13796;SHT30;40911;51.552;9.874;2023-02-01T11:08:55;6.10;81.37
13796;SHT30;40911;51.552;9.874;2023-02-01T11:11:17;6.10;80.94
13796;SHT30;40911;51.552;9.874;2023-02-01T11:13:40;6.17;81.27
13796;SHT30;40911;51.552;9.874;2023-02-01T11:16:03;6.20;81.03
13796;SHT30;40911;51.552;9.874;2023-02-01T11:18:27;6.23;80.94
13796;SHT30;40911;51.552;9.874;2023-02-01T11:20:49;6.17;80.95
13796;SHT30;40911;51.552;9.874;2023-02-01T11:23:15;6.13;80.74
13796;SHT30;40911;51.552;9.874;2023-02-01T11:25:38;6.17;81.10
13796;SHT30;40911;51.552;9.874;2023-02-01T11:28:01;6.21;80.68
13796;SHT30;40911;51.552;9.874;2023-02-01T11:30:27;6.18;80.62
13796;SHT30;40911;51.552;9.874;2023-02-01T11:32:51;6.30;80.99
13796;SHT30;40911;51.552;9.874;2023-02-01T11:35:17;6.30;80.58
13796;SHT30;40911;51.552;9.874;2023-02-01T11:37:41;6.34;80.61
13796;SHT30;40911;51.552;9.874;2023-02-01T11:40:25;6.32;80.41
13796;SHT30;40911;51.552;9.874;2023-02-01T11:42:55;6.30;80.72
13796;SHT30;40911;51.552;9.874;2023-02-01T11:45:20;6.27;80.38
13796;SHT30;40911;51.552;9.874;2023-02-01T11:47:42;6.31;80.44
13796;SHT30;40911;51.552;9.874;2023-02-01T11:50:14;6.31;79.93
13796;SHT30;40911;51.552;9.874;2023-02-01T11:52:52;6.31;80.66
13796;SHT30;40911;51.552;9.874;2023-02-01T11:55:29;6.37;80.63
13796;SHT30;40911;51.552;9.874;2023-02-01T11:58:03;6.35;80.36
13796;SHT30;40911;51.552;9.874;2023-02-01T12:00:36;6.40;80.39
13796;SHT30;40911;51.552;9.874;2023-02-01T12:05:51;6.38;79.36
13796;SHT30;40911;51.552;9.874;2023-02-01T12:08:26;6.38;79.48
13796;SHT30;40911;51.552;9.874;2023-02-01T12:11:16;6.38;79.69
13796;SHT30;40911;51.552;9.874;2023-02-01T12:13:48;6.38;79.68
13796;SHT30;40911;51.552;9.874;2023-02-01T12:16:21;6.38;80.02
13796;SHT30;40911;51.552;9.874;2023-02-01T12:22:04;6.38;79.72
13796;SHT30;40911;51.552;9.874;2023-02-01T12:24:49;6.37;79.52
13796;SHT30;40911;51.552;9.874;2023-02-01T12:27:37;6.35;80.05
13796;SHT30;40911;51.552;9.874;2023-02-01T12:30:20;6.37;79.98
13796;SHT30;40911;51.552;9.874;2023-02-01T12:32:56;6.40;79.53
13796;SHT30;40911;51.552;9.874;2023-02-01T12:38:29;6.42;79.33
13796;SHT30;40911;51.552;9.874;2023-02-01T12:41:06;6.45;79.39
13796;SHT30;40911;51.552;9.874;2023-02-01T12:43:36;6.51;78.33
13796;SHT30;40911;51.552;9.874;2023-02-01T12:46:04;6.53;78.34
13796;SHT30;40911;51.552;9.874;2023-02-01T12:48:32;6.62;78.34
13796;SHT30;40911;51.552;9.874;2023-02-01T12:50:56;6.64;78.14
13796;SHT30;40911;51.552;9.874;2023-02-01T12:53:24;6.62;78.66
13796;SHT30;40911;51.552;9.874;2023-02-01T12:55:48;6.69;79.05
13796;SHT30;40911;51.552;9.874;2023-02-01T12:58:14;6.59;78.81
13796;SHT30;40911;51.552;9.874;2023-02-01T13:00:40;6.56;79.00
13796;SHT30;40911;51.552;9.874;2023-02-01T13:03:10;6.61;79.36
13796;SHT30;40911;51.552;9.874;2023-02-01T13:05:46;6.61;79.74
13796;SHT30;40911;51.552;9.874;2023-02-01T13:08:12;6.64;79.84
13796;SHT30;40911;51.552;9.874;2023-02-01T13:10:38;6.58;80.52
13796;SHT30;40911;51.552;9.874;2023-02-01T13:13:10;6.45;81.42
13796;SHT30;40911;51.552;9.874;2023-02-01T13:15:36;6.23;82.33
13796;SHT30;40911;51.552;9.874;2023-02-01T13:18:04;6.20;83.33
13796;SHT30;40911;51.552;9.874;2023-02-01T13:20:30;6.16;83.68
13796;SHT30;40911;51.552;9.874;2023-02-01T13:22:57;6.04;84.99
13796;SHT30;40911;51.552;9.874;2023-02-01T13:25:31;5.93;85.88
13796;SHT30;40911;51.552;9.874;2023-02-01T13:27:55;5.82;86.21
13796;SHT30;40911;51.552;9.874;2023-02-01T13:30:21;5.75;87.05
13796;SHT30;40911;51.552;9.874;2023-02-01T13:33:08;5.75;87.20
13796;SHT30;40911;51.552;9.874;2023-02-01T13:36:04;5.59;88.00
13796;SHT30;40911;51.552;9.874;2023-02-01T13:39:02;5.52;87.75
13796;SHT30;40911;51.552;9.874;2023-02-01T13:41:29;5.54;88.66
13796;SHT30;40911;51.552;9.874;2023-02-01T13:43:53;5.52;89.29
13796;SHT30;40911;51.552;9.874;2023-02-01T13:46:16;5.39;89.36
13796;SHT30;40911;51.552;9.874;2023-02-01T13:48:41;5.42;88.98
13796;SHT30;40911;51.552;9.874;2023-02-01T13:51:07;5.44;88.75
13796;SHT30;40911;51.552;9.874;2023-02-01T13:53:31;5.46;88.25
13796;SHT30;40911;51.552;9.874;2023-02-01T13:55:59;5.49;88.27
13796;SHT30;40911;51.552;9.874;2023-02-01T13:58:29;5.44;89.17
13796;SHT30;40911;51.552;9.874;2023-02-01T14:04:45;5.46;89.80
13796;SHT30;40911;51.552;9.874;2023-02-01T14:07:18;5.37;89.55
13796;SHT30;40911;51.552;9.874;2023-02-01T14:09:39;5.24;89.87
13796;SHT30;40911;51.552;9.874;2023-02-01T14:12:46;5.14;90.61
13796;SHT30;40911;51.552;9.874;2023-02-01T14:15:21;5.14;90.96
13796;SHT30;40911;51.552;9.874;2023-02-01T14:17:43;5.14;91.07
13796;SHT30;40911;51.552;9.874;2023-02-01T14:23:20;5.00;92.26
13796;SHT30;40911;51.552;9.874;2023-02-01T14:25:43;4.92;92.19
13796;SHT30;40911;51.552;9.874;2023-02-01T14:28:11;4.89;92.12
13796;SHT30;40911;51.552;9.874;2023-02-01T14:30:33;4.83;92.87
13796;SHT30;40911;51.552;9.874;2023-02-01T14:32:54;4.85;92.71
13796;SHT30;40911;51.552;9.874;2023-02-01T14:35:19;4.85;92.89
13796;SHT30;40911;51.552;9.874;2023-02-01T14:37:41;4.85;92.79
13796;SHT30;40911;51.552;9.874;2023-02-01T14:40:06;4.90;92.46
13796;SHT30;40911;51.552;9.874;2023-02-01T14:42:42;4.90;92.95
13796;SHT30;40911;51.552;9.874;2023-02-01T14:48:43;4.99;92.19
13796;SHT30;40911;51.552;9.874;2023-02-01T14:51:06;5.00;92.24
13796;SHT30;40911;51.552;9.874;2023-02-01T14:53:31;5.06;91.66
13796;SHT30;40911;51.552;9.874;2023-02-01T14:56:04;5.07;92.01
13796;SHT30;40911;51.552;9.874;2023-02-01T14:58:35;5.11;91.63
13796;SHT30;40911;51.552;9.874;2023-02-01T15:01:01;5.06;92.62
13796;SHT30;40911;51.552;9.874;2023-02-01T15:03:35;5.04;92.51
13796;SHT30;40911;51.552;9.874;2023-02-01T15:05:59;5.06;92.53
13796;SHT30;40911;51.552;9.874;2023-02-01T15:08:30;5.03;92.82
13796;SHT30;40911;51.552;9.874;2023-02-01T15:10:53;5.03;93.02
13796;SHT30;40911;51.552;9.874;2023-02-01T15:13:21;5.10;92.70
13796;SHT30;40911;51.552;9.874;2023-02-01T15:15:43;5.14;92.74
13796;SHT30;40911;51.552;9.874;2023-02-01T15:18:05;5.13;92.76
13796;SHT30;40911;51.552;9.874;2023-02-01T15:20:28;5.14;92.98
13796;SHT30;40911;51.552;9.874;2023-02-01T15:22:54;5.18;92.14
13796;SHT30;40911;51.552;9.874;2023-02-01T15:25:21;5.17;92.26
13796;SHT30;40911;51.552;9.874;2023-02-01T15:27:43;5.03;91.99
13796;SHT30;40911;51.552;9.874;2023-02-01T15:30:07;4.52;93.37
13796;SHT30;40911;51.552;9.874;2023-02-01T15:32:29;4.52;94.27
13796;SHT30;40911;51.552;9.874;2023-02-01T15:34:51;4.39;94.33
13796;SHT30;40911;51.552;9.874;2023-02-01T15:37:14;3.85;94.70
13796;SHT30;40911;51.552;9.874;2023-02-01T15:39:36;2.94;94.94
13796;SHT30;40911;51.552;9.874;2023-02-01T15:41:59;3.15;94.30
13796;SHT30;40911;51.552;9.874;2023-02-01T15:44:30;3.17;94.44
13796;SHT30;40911;51.552;9.874;2023-02-01T15:46:53;3.20;94.41
13796;SHT30;40911;51.552;9.874;2023-02-01T15:49:19;3.28;94.74
13796;SHT30;40911;51.552;9.874;2023-02-01T15:51:44;3.35;94.86
13796;SHT30;40911;51.552;9.874;2023-02-01T15:54:07;3.42;95.03
13796;SHT30;40911;51.552;9.874;2023-02-01T15:56:34;3.47;94.78
13796;SHT30;40911;51.552;9.874;2023-02-01T15:58:58;3.52;94.86